sensor_id;sensor_type;location;lat;lon;timestamp;P1;durP1;ratioP1;P2;durP2;ratioP2
67904;SDS011;54709;43.614;1.576;2024-03-08T00:02:22;5.03;;;1.10;;
67904;SDS011;54709;43.614;1.576;2024-03-08T00:04:48;5.07;;;1.33;;
67904;SDS011;54709;43.614;1.576;2024-03-08T00:07:13;5.40;;;1.30;;
67904;SDS011;54709;43.614;1.576;2024-03-08T00:09:38;4.85;;;1.23;;
67904;SDS011;54709;43.614;1.576;2024-03-08T00:12:04;7.03;;;1.35;;
67904;SDS011;54709;43.614;1.576;2024-03-08T00:14:29;3.55;;;1.00;;
67904;SDS011;54709;43.614;1.576;2024-03-08T00:16:55;3.08;;;1.48;;
67904;SDS011;54709;43.614;1.576;2024-03-08T00:19:20;4.97;;;1.50;;
67904;SDS011;54709;43.614;1.576;2024-03-08T00:21:46;2.65;;;1.20;;
67904;SDS011;54709;43.614;1.576;2024-03-08T00:24:11;2.50;;;0.85;;
67904;SDS011;54709;43.614;1.576;2024-03-08T00:26:37;3.28;;;1.20;;
67904;SDS011;54709;43.614;1.576;2024-03-08T00:29:02;4.53;;;1.20;;
67904;SDS011;54709;43.614;1.576;2024-03-08T00:31:28;3.92;;;1.15;;
67904;SDS011;54709;43.614;1.576;2024-03-08T00:33:55;4.10;;;1.20;;
67904;SDS011;54709;43.614;1.576;2024-03-08T00:36:22;4.43;;;1.30;;
67904;SDS011;54709;43.614;1.576;2024-03-08T00:38:47;5.53;;;1.38;;
67904;SDS011;54709;43.614;1.576;2024-03-08T00:41:13;3.78;;;1.23;;
67904;SDS011;54709;43.614;1.576;2024-03-08T00:43:38;3.35;;;1.05;;
67904;SDS011;54709;43.614;1.576;2024-03-08T00:46:04;4.07;;;1.38;;
67904;SDS011;54709;43.614;1.576;2024-03-08T00:48:29;5.75;;;1.45;;
67904;SDS011;54709;43.614;1.576;2024-03-08T00:50:56;4.68;;;1.10;;
67904;SDS011;54709;43.614;1.576;2024-03-08T00:53:21;8.20;;;1.60;;
67904;SDS011;54709;43.614;1.576;2024-03-08T00:55:46;5.65;;;1.40;;
67904;SDS011;54709;43.614;1.576;2024-03-08T00:58:12;3.05;;;1.00;;
67904;SDS011;54709;43.614;1.576;2024-03-08T01:00:38;2.25;;;0.88;;
67904;SDS011;54709;43.614;1.576;2024-03-08T01:03:06;3.70;;;1.10;;
67904;SDS011;54709;43.614;1.576;2024-03-08T01:05:32;4.80;;;1.15;;
67904;SDS011;54709;43.614;1.576;2024-03-08T01:07:57;5.03;;;1.50;;
67904;SDS011;54709;43.614;1.576;2024-03-08T01:10:23;5.70;;;1.30;;
67904;SDS011;54709;43.614;1.576;2024-03-08T01:12:48;5.35;;;1.10;;
67904;SDS011;54709;43.614;1.576;2024-03-08T01:15:14;5.15;;;1.15;;
67904;SDS011;54709;43.614;1.576;2024-03-08T01:17:40;3.60;;;0.95;;
67904;SDS011;54709;43.614;1.576;2024-03-08T01:20:06;4.32;;;1.20;;
67904;SDS011;54709;43.614;1.576;2024-03-08T01:22:32;5.22;;;1.20;;
67904;SDS011;54709;43.614;1.576;2024-03-08T01:24:58;5.20;;;1.13;;
67904;SDS011;54709;43.614;1.576;2024-03-08T01:27:24;5.55;;;1.20;;
67904;SDS011;54709;43.614;1.576;2024-03-08T01:29:50;4.25;;;1.13;;
67904;SDS011;54709;43.614;1.576;2024-03-08T01:32:15;5.18;;;1.30;;
67904;SDS011;54709;43.614;1.576;2024-03-08T01:34:41;4.38;;;1.50;;
67904;SDS011;54709;43.614;1.576;2024-03-08T01:37:07;5.30;;;1.30;;
67904;SDS011;54709;43.614;1.576;2024-03-08T01:39:32;5.18;;;1.33;;
67904;SDS011;54709;43.614;1.576;2024-03-08T01:41:58;5.82;;;1.33;;
67904;SDS011;54709;43.614;1.576;2024-03-08T01:44:23;7.50;;;1.20;;
67904;SDS011;54709;43.614;1.576;2024-03-08T01:46:49;6.90;;;1.40;;
67904;SDS011;54709;43.614;1.576;2024-03-08T01:49:17;7.72;;;1.27;;
67904;SDS011;54709;43.614;1.576;2024-03-08T01:51:45;5.22;;;1.15;;
67904;SDS011;54709;43.614;1.576;2024-03-08T01:54:11;5.60;;;1.58;;
67904;SDS011;54709;43.614;1.576;2024-03-08T01:56:37;4.70;;;1.33;;
67904;SDS011;54709;43.614;1.576;2024-03-08T01:59:03;5.30;;;1.30;;
67904;SDS011;54709;43.614;1.576;2024-03-08T02:01:30;5.57;;;1.23;;
67904;SDS011;54709;43.614;1.576;2024-03-08T02:03:56;6.47;;;1.38;;
67904;SDS011;54709;43.614;1.576;2024-03-08T02:06:21;5.72;;;1.15;;
67904;SDS011;54709;43.614;1.576;2024-03-08T02:08:47;6.80;;;1.15;;
67904;SDS011;54709;43.614;1.576;2024-03-08T02:11:12;4.65;;;1.00;;
67904;SDS011;54709;43.614;1.576;2024-03-08T02:13:38;5.82;;;1.30;;
67904;SDS011;54709;43.614;1.576;2024-03-08T02:16:04;3.58;;;1.15;;
67904;SDS011;54709;43.614;1.576;2024-03-08T02:18:33;3.40;;;1.20;;
67904;SDS011;54709;43.614;1.576;2024-03-08T02:20:59;4.03;;;1.10;;
67904;SDS011;54709;43.614;1.576;2024-03-08T02:23:26;3.90;;;1.00;;
67904;SDS011;54709;43.614;1.576;2024-03-08T02:25:52;4.05;;;1.20;;
67904;SDS011;54709;43.614;1.576;2024-03-08T02:28:18;4.25;;;1.13;;
67904;SDS011;54709;43.614;1.576;2024-03-08T02:30:44;3.70;;;1.30;;
67904;SDS011;54709;43.614;1.576;2024-03-08T02:33:13;4.72;;;1.30;;
67904;SDS011;54709;43.614;1.576;2024-03-08T02:35:43;5.10;;;0.98;;
67904;SDS011;54709;43.614;1.576;2024-03-08T02:38:18;4.05;;;1.10;;
67904;SDS011;54709;43.614;1.576;2024-03-08T02:40:45;3.33;;;1.02;;
67904;SDS011;54709;43.614;1.576;2024-03-08T02:43:12;4.30;;;1.48;;
67904;SDS011;54709;43.614;1.576;2024-03-08T02:45:37;4.30;;;1.20;;
67904;SDS011;54709;43.614;1.576;2024-03-08T02:48:03;3.40;;;1.17;;
67904;SDS011;54709;43.614;1.576;2024-03-08T02:50:31;3.88;;;1.00;;
67904;SDS011;54709;43.614;1.576;2024-03-08T02:52:57;3.40;;;1.02;;
67904;SDS011;54709;43.614;1.576;2024-03-08T02:55:22;6.03;;;1.20;;
67904;SDS011;54709;43.614;1.576;2024-03-08T02:57:50;5.55;;;1.10;;
67904;SDS011;54709;43.614;1.576;2024-03-08T03:00:16;6.68;;;1.15;;
67904;SDS011;54709;43.614;1.576;2024-03-08T03:02:44;4.13;;;1.20;;
67904;SDS011;54709;43.614;1.576;2024-03-08T03:05:10;5.40;;;1.10;;
67904;SDS011;54709;43.614;1.576;2024-03-08T03:07:36;4.47;;;0.95;;
67904;SDS011;54709;43.614;1.576;2024-03-08T03:10:02;4.47;;;1.08;;
67904;SDS011;54709;43.614;1.576;2024-03-08T03:12:28;4.78;;;1.02;;
67904;SDS011;54709;43.614;1.576;2024-03-08T03:14:54;3.63;;;0.85;;
67904;SDS011;54709;43.614;1.576;2024-03-08T03:17:19;2.40;;;0.82;;
67904;SDS011;54709;43.614;1.576;2024-03-08T03:19:45;5.60;;;1.08;;
67904;SDS011;54709;43.614;1.576;2024-03-08T03:22:11;3.85;;;0.98;;
67904;SDS011;54709;43.614;1.576;2024-03-08T03:24:37;7.60;;;1.30;;
67904;SDS011;54709;43.614;1.576;2024-03-08T03:27:07;3.10;;;1.10;;
67904;SDS011;54709;43.614;1.576;2024-03-08T03:29:39;4.30;;;1.25;;
67904;SDS011;54709;43.614;1.576;2024-03-08T03:32:05;2.53;;;1.00;;
67904;SDS011;54709;43.614;1.576;2024-03-08T03:34:32;5.78;;;1.20;;
67904;SDS011;54709;43.614;1.576;2024-03-08T03:37:01;3.90;;;1.17;;
67904;SDS011;54709;43.614;1.576;2024-03-08T03:39:27;3.05;;;1.13;;
67904;SDS011;54709;43.614;1.576;2024-03-08T03:41:56;4.68;;;1.10;;
67904;SDS011;54709;43.614;1.576;2024-03-08T03:44:22;5.47;;;1.10;;
67904;SDS011;54709;43.614;1.576;2024-03-08T03:46:48;5.57;;;1.15;;
67904;SDS011;54709;43.614;1.576;2024-03-08T03:49:15;5.03;;;0.90;;
67904;SDS011;54709;43.614;1.576;2024-03-08T03:51:42;3.58;;;1.10;;
67904;SDS011;54709;43.614;1.576;2024-03-08T03:54:07;3.83;;;1.13;;
67904;SDS011;54709;43.614;1.576;2024-03-08T03:56:33;3.65;;;0.88;;
67904;SDS011;54709;43.614;1.576;2024-03-08T03:58:58;3.85;;;0.90;;
67904;SDS011;54709;43.614;1.576;2024-03-08T04:01:23;2.00;;;0.70;;
67904;SDS011;54709;43.614;1.576;2024-03-08T04:03:49;3.92;;;0.85;;
67904;SDS011;54709;43.614;1.576;2024-03-08T04:06:14;3.58;;;1.00;;
67904;SDS011;54709;43.614;1.576;2024-03-08T04:08:40;10.07;;;1.10;;
67904;SDS011;54709;43.614;1.576;2024-03-08T04:11:06;4.40;;;1.00;;
67904;SDS011;54709;43.614;1.576;2024-03-08T04:13:35;7.10;;;1.00;;
67904;SDS011;54709;43.614;1.576;2024-03-08T04:16:01;3.67;;;0.80;;
67904;SDS011;54709;43.614;1.576;2024-03-08T04:18:27;2.38;;;0.88;;
67904;SDS011;54709;43.614;1.576;2024-03-08T04:20:53;3.97;;;1.00;;
67904;SDS011;54709;43.614;1.576;2024-03-08T04:23:18;7.82;;;1.20;;
67904;SDS011;54709;43.614;1.576;2024-03-08T04:25:44;4.68;;;1.00;;
67904;SDS011;54709;43.614;1.576;2024-03-08T04:28:10;4.65;;;0.93;;
67904;SDS011;54709;43.614;1.576;2024-03-08T04:30:38;3.63;;;0.80;;
67904;SDS011;54709;43.614;1.576;2024-03-08T04:33:07;5.72;;;1.20;;
67904;SDS011;54709;43.614;1.576;2024-03-08T04:35:33;4.45;;;0.93;;
67904;SDS011;54709;43.614;1.576;2024-03-08T04:37:59;5.63;;;1.30;;
67904;SDS011;54709;43.614;1.576;2024-03-08T04:40:24;4.57;;;1.35;;
67904;SDS011;54709;43.614;1.576;2024-03-08T04:42:50;6.20;;;1.20;;
67904;SDS011;54709;43.614;1.576;2024-03-08T04:45:16;4.90;;;1.20;;
67904;SDS011;54709;43.614;1.576;2024-03-08T04:47:42;6.00;;;1.33;;
67904;SDS011;54709;43.614;1.576;2024-03-08T04:50:07;5.45;;;1.08;;
67904;SDS011;54709;43.614;1.576;2024-03-08T04:52:36;5.18;;;1.05;;
67904;SDS011;54709;43.614;1.576;2024-03-08T04:55:01;3.03;;;0.85;;
67904;SDS011;54709;43.614;1.576;2024-03-08T04:57:30;6.18;;;1.10;;
67904;SDS011;54709;43.614;1.576;2024-03-08T04:59:55;7.75;;;1.20;;
67904;SDS011;54709;43.614;1.576;2024-03-08T05:02:20;8.88;;;1.20;;
67904;SDS011;54709;43.614;1.576;2024-03-08T05:04:47;5.50;;;1.23;;
67904;SDS011;54709;43.614;1.576;2024-03-08T05:07:13;5.47;;;1.13;;
67904;SDS011;54709;43.614;1.576;2024-03-08T05:09:38;7.95;;;1.17;;
67904;SDS011;54709;43.614;1.576;2024-03-08T05:12:05;8.15;;;1.20;;
67904;SDS011;54709;43.614;1.576;2024-03-08T05:14:31;5.68;;;1.08;;
67904;SDS011;54709;43.614;1.576;2024-03-08T05:16:56;6.43;;;1.13;;
67904;SDS011;54709;43.614;1.576;2024-03-08T05:19:21;4.28;;;1.08;;
67904;SDS011;54709;43.614;1.576;2024-03-08T05:21:48;5.72;;;1.15;;
67904;SDS011;54709;43.614;1.576;2024-03-08T05:24:14;4.65;;;1.20;;
67904;SDS011;54709;43.614;1.576;2024-03-08T05:26:42;2.47;;;1.08;;
67904;SDS011;54709;43.614;1.576;2024-03-08T05:29:08;8.95;;;1.80;;
67904;SDS011;54709;43.614;1.576;2024-03-08T05:31:57;5.90;;;1.10;;
67904;SDS011;54709;43.614;1.576;2024-03-08T05:34:22;4.40;;;1.23;;
67904;SDS011;54709;43.614;1.576;2024-03-08T05:36:48;5.72;;;1.10;;
67904;SDS011;54709;43.614;1.576;2024-03-08T05:39:17;8.95;;;1.17;;
67904;SDS011;54709;43.614;1.576;2024-03-08T05:41:43;5.35;;;1.10;;
67904;SDS011;54709;43.614;1.576;2024-03-08T05:44:09;5.15;;;1.15;;
67904;SDS011;54709;43.614;1.576;2024-03-08T05:46:35;6.05;;;1.30;;
67904;SDS011;54709;43.614;1.576;2024-03-08T05:49:04;7.30;;;1.23;;
67904;SDS011;54709;43.614;1.576;2024-03-08T05:51:36;5.85;;;1.60;;
67904;SDS011;54709;43.614;1.576;2024-03-08T05:54:06;6.28;;;1.25;;
67904;SDS011;54709;43.614;1.576;2024-03-08T05:56:33;7.07;;;1.65;;
67904;SDS011;54709;43.614;1.576;2024-03-08T05:58:59;7.22;;;1.02;;
67904;SDS011;54709;43.614;1.576;2024-03-08T06:01:25;3.20;;;1.00;;
67904;SDS011;54709;43.614;1.576;2024-03-08T06:03:51;5.20;;;1.33;;
67904;SDS011;54709;43.614;1.576;2024-03-08T06:06:23;5.22;;;0.93;;
67904;SDS011;54709;43.614;1.576;2024-03-08T06:08:49;6.50;;;1.23;;
67904;SDS011;54709;43.614;1.576;2024-03-08T06:11:15;10.00;;;1.40;;
67904;SDS011;54709;43.614;1.576;2024-03-08T06:13:45;6.20;;;1.20;;
67904;SDS011;54709;43.614;1.576;2024-03-08T06:16:11;8.65;;;1.40;;
67904;SDS011;54709;43.614;1.576;2024-03-08T06:18:36;6.10;;;1.20;;
67904;SDS011;54709;43.614;1.576;2024-03-08T06:21:05;5.18;;;1.20;;
67904;SDS011;54709;43.614;1.576;2024-03-08T06:23:32;4.72;;;1.08;;
67904;SDS011;54709;43.614;1.576;2024-03-08T06:25:57;6.10;;;1.23;;
67904;SDS011;54709;43.614;1.576;2024-03-08T06:28:23;5.32;;;0.95;;
67904;SDS011;54709;43.614;1.576;2024-03-08T06:30:48;6.28;;;1.50;;
67904;SDS011;54709;43.614;1.576;2024-03-08T06:33:15;5.82;;;1.10;;
67904;SDS011;54709;43.614;1.576;2024-03-08T06:35:41;5.78;;;1.00;;
67904;SDS011;54709;43.614;1.576;2024-03-08T06:38:06;4.45;;;0.93;;
67904;SDS011;54709;43.614;1.576;2024-03-08T06:40:32;2.20;;;0.80;;
67904;SDS011;54709;43.614;1.576;2024-03-08T06:42:57;8.32;;;1.00;;
67904;SDS011;54709;43.614;1.576;2024-03-08T06:45:23;3.63;;;1.10;;
67904;SDS011;54709;43.614;1.576;2024-03-08T06:47:48;4.70;;;1.10;;
67904;SDS011;54709;43.614;1.576;2024-03-08T06:50:14;7.63;;;1.10;;
67904;SDS011;54709;43.614;1.576;2024-03-08T06:52:40;2.85;;;0.80;;
67904;SDS011;54709;43.614;1.576;2024-03-08T06:55:07;4.80;;;1.08;;
67904;SDS011;54709;43.614;1.576;2024-03-08T06:57:37;3.70;;;0.82;;
67904;SDS011;54709;43.614;1.576;2024-03-08T07:00:06;2.78;;;0.70;;
67904;SDS011;54709;43.614;1.576;2024-03-08T07:02:35;3.88;;;0.82;;
67904;SDS011;54709;43.614;1.576;2024-03-08T07:05:00;3.65;;;0.85;;
67904;SDS011;54709;43.614;1.576;2024-03-08T07:07:26;3.80;;;0.80;;
67904;SDS011;54709;43.614;1.576;2024-03-08T07:09:52;3.45;;;0.80;;
67904;SDS011;54709;43.614;1.576;2024-03-08T07:12:17;1.88;;;0.90;;
67904;SDS011;54709;43.614;1.576;2024-03-08T07:14:42;3.92;;;0.73;;
67904;SDS011;54709;43.614;1.576;2024-03-08T07:17:10;2.80;;;0.82;;
67904;SDS011;54709;43.614;1.576;2024-03-08T07:19:36;3.22;;;0.82;;
67904;SDS011;54709;43.614;1.576;2024-03-08T07:22:03;7.55;;;0.90;;
67904;SDS011;54709;43.614;1.576;2024-03-08T07:24:29;2.70;;;0.70;;
67904;SDS011;54709;43.614;1.576;2024-03-08T07:27:12;3.30;;;0.65;;
67904;SDS011;54709;43.614;1.576;2024-03-08T07:29:38;2.22;;;0.60;;
67904;SDS011;54709;43.614;1.576;2024-03-08T07:32:03;5.10;;;0.55;;
67904;SDS011;54709;43.614;1.576;2024-03-08T07:34:47;3.47;;;0.80;;
67904;SDS011;54709;43.614;1.576;2024-03-08T07:37:15;2.50;;;0.63;;
67904;SDS011;54709;43.614;1.576;2024-03-08T07:39:41;3.63;;;0.60;;
67904;SDS011;54709;43.614;1.576;2024-03-08T07:42:06;2.30;;;0.60;;
67904;SDS011;54709;43.614;1.576;2024-03-08T07:44:32;3.53;;;0.70;;
67904;SDS011;54709;43.614;1.576;2024-03-08T07:46:58;2.38;;;0.55;;
67904;SDS011;54709;43.614;1.576;2024-03-08T07:49:24;1.45;;;0.60;;
67904;SDS011;54709;43.614;1.576;2024-03-08T07:51:49;8.23;;;0.80;;
67904;SDS011;54709;43.614;1.576;2024-03-08T07:54:15;2.88;;;0.60;;
67904;SDS011;54709;43.614;1.576;2024-03-08T07:56:40;2.35;;;0.63;;
67904;SDS011;54709;43.614;1.576;2024-03-08T07:59:07;2.10;;;0.50;;
67904;SDS011;54709;43.614;1.576;2024-03-08T08:01:32;2.40;;;0.68;;
67904;SDS011;54709;43.614;1.576;2024-03-08T08:04:01;5.57;;;0.70;;
67904;SDS011;54709;43.614;1.576;2024-03-08T08:06:27;2.33;;;0.77;;
67904;SDS011;54709;43.614;1.576;2024-03-08T08:08:53;3.00;;;0.80;;
67904;SDS011;54709;43.614;1.576;2024-03-08T08:11:18;1.75;;;0.60;;
67904;SDS011;54709;43.614;1.576;2024-03-08T08:13:45;3.58;;;0.60;;
67904;SDS011;54709;43.614;1.576;2024-03-08T08:16:10;4.15;;;0.80;;
67904;SDS011;54709;43.614;1.576;2024-03-08T08:18:36;2.00;;;0.50;;
67904;SDS011;54709;43.614;1.576;2024-03-08T08:21:02;2.10;;;0.60;;
67904;SDS011;54709;43.614;1.576;2024-03-08T08:23:27;0.93;;;0.38;;
67904;SDS011;54709;43.614;1.576;2024-03-08T08:25:54;7.93;;;0.70;;
67904;SDS011;54709;43.614;1.576;2024-03-08T08:28:20;2.30;;;0.60;;
67904;SDS011;54709;43.614;1.576;2024-03-08T08:30:46;3.03;;;0.50;;
67904;SDS011;54709;43.614;1.576;2024-03-08T08:33:11;2.30;;;0.50;;
67904;SDS011;54709;43.614;1.576;2024-03-08T08:35:37;6.28;;;1.08;;
67904;SDS011;54709;43.614;1.576;2024-03-08T08:38:03;9.40;;;1.08;;
67904;SDS011;54709;43.614;1.576;2024-03-08T08:40:33;14.80;;;1.05;;
67904;SDS011;54709;43.614;1.576;2024-03-08T08:43:01;4.60;;;1.10;;
67904;SDS011;54709;43.614;1.576;2024-03-08T08:45:29;5.72;;;1.17;;
67904;SDS011;54709;43.614;1.576;2024-03-08T08:47:55;5.72;;;1.08;;
67904;SDS011;54709;43.614;1.576;2024-03-08T08:50:21;5.22;;;1.40;;
67904;SDS011;54709;43.614;1.576;2024-03-08T08:52:49;4.30;;;1.10;;
67904;SDS011;54709;43.614;1.576;2024-03-08T08:55:14;4.20;;;1.10;;
67904;SDS011;54709;43.614;1.576;2024-03-08T08:57:40;5.47;;;2.08;;
67904;SDS011;54709;43.614;1.576;2024-03-08T09:00:06;5.22;;;1.17;;
67904;SDS011;54709;43.614;1.576;2024-03-08T09:02:36;4.03;;;1.00;;
67904;SDS011;54709;43.614;1.576;2024-03-08T09:05:02;5.80;;;1.83;;
67904;SDS011;54709;43.614;1.576;2024-03-08T09:07:28;7.13;;;1.90;;
67904;SDS011;54709;43.614;1.576;2024-03-08T09:09:53;7.75;;;1.67;;
67904;SDS011;54709;43.614;1.576;2024-03-08T09:12:23;4.80;;;2.13;;
67904;SDS011;54709;43.614;1.576;2024-03-08T09:14:49;2.78;;;1.17;;
67904;SDS011;54709;43.614;1.576;2024-03-08T09:17:15;4.10;;;2.08;;
67904;SDS011;54709;43.614;1.576;2024-03-08T09:19:46;4.85;;;1.15;;
67904;SDS011;54709;43.614;1.576;2024-03-08T09:22:12;7.68;;;1.80;;
67904;SDS011;54709;43.614;1.576;2024-03-08T09:24:38;8.15;;;3.67;;
67904;SDS011;54709;43.614;1.576;2024-03-08T09:27:03;9.43;;;4.03;;
67904;SDS011;54709;43.614;1.576;2024-03-08T09:29:29;15.30;;;5.57;;
67904;SDS011;54709;43.614;1.576;2024-03-08T09:31:54;11.18;;;4.70;;
67904;SDS011;54709;43.614;1.576;2024-03-08T09:34:20;16.67;;;6.82;;
67904;SDS011;54709;43.614;1.576;2024-03-08T09:36:46;15.82;;;8.25;;
67904;SDS011;54709;43.614;1.576;2024-03-08T09:39:11;20.23;;;10.13;;
67904;SDS011;54709;43.614;1.576;2024-03-08T09:41:42;21.95;;;11.02;;
67904;SDS011;54709;43.614;1.576;2024-03-08T09:44:13;27.73;;;12.00;;
67904;SDS011;54709;43.614;1.576;2024-03-08T09:46:39;20.27;;;10.98;;
67904;SDS011;54709;43.614;1.576;2024-03-08T09:49:05;22.35;;;9.48;;
67904;SDS011;54709;43.614;1.576;2024-03-08T09:51:30;21.23;;;10.70;;
67904;SDS011;54709;43.614;1.576;2024-03-08T09:54:00;22.65;;;10.57;;
67904;SDS011;54709;43.614;1.576;2024-03-08T09:56:26;24.73;;;11.45;;
67904;SDS011;54709;43.614;1.576;2024-03-08T09:58:52;19.73;;;9.15;;
67904;SDS011;54709;43.614;1.576;2024-03-08T10:01:50;18.35;;;10.00;;
67904;SDS011;54709;43.614;1.576;2024-03-08T10:04:17;19.02;;;8.73;;
67904;SDS011;54709;43.614;1.576;2024-03-08T10:06:43;25.58;;;11.07;;
67904;SDS011;54709;43.614;1.576;2024-03-08T10:09:09;23.08;;;12.05;;
67904;SDS011;54709;43.614;1.576;2024-03-08T10:11:35;20.17;;;9.70;;
67904;SDS011;54709;43.614;1.576;2024-03-08T10:14:01;19.05;;;10.48;;
67904;SDS011;54709;43.614;1.576;2024-03-08T10:16:28;13.27;;;7.35;;
67904;SDS011;54709;43.614;1.576;2024-03-08T10:18:55;8.95;;;5.60;;
67904;SDS011;54709;43.614;1.576;2024-03-08T10:21:21;26.50;;;17.40;;
67904;SDS011;54709;43.614;1.576;2024-03-08T10:23:47;30.60;;;21.10;;
67904;SDS011;54709;43.614;1.576;2024-03-08T10:26:13;17.55;;;8.15;;
67904;SDS011;54709;43.614;1.576;2024-03-08T10:28:51;11.90;;;6.85;;
67904;SDS011;54709;43.614;1.576;2024-03-08T10:31:18;7.63;;;3.10;;
67904;SDS011;54709;43.614;1.576;2024-03-08T10:33:44;7.95;;;3.05;;
67904;SDS011;54709;43.614;1.576;2024-03-08T10:36:11;7.05;;;3.78;;
67904;SDS011;54709;43.614;1.576;2024-03-08T10:38:38;10.70;;;4.57;;
67904;SDS011;54709;43.614;1.576;2024-03-08T10:41:05;8.00;;;4.10;;
67904;SDS011;54709;43.614;1.576;2024-03-08T10:43:32;10.05;;;6.18;;
67904;SDS011;54709;43.614;1.576;2024-03-08T10:46:26;10.15;;;4.30;;
67904;SDS011;54709;43.614;1.576;2024-03-08T10:48:55;6.68;;;3.38;;
67904;SDS011;54709;43.614;1.576;2024-03-08T10:51:24;10.32;;;4.20;;
67904;SDS011;54709;43.614;1.576;2024-03-08T10:53:50;8.95;;;4.30;;
67904;SDS011;54709;43.614;1.576;2024-03-08T10:56:17;12.15;;;5.65;;
67904;SDS011;54709;43.614;1.576;2024-03-08T10:58:42;7.03;;;3.97;;
67904;SDS011;54709;43.614;1.576;2024-03-08T11:01:09;12.18;;;5.80;;
67904;SDS011;54709;43.614;1.576;2024-03-08T11:06:05;8.10;;;4.97;;
67904;SDS011;54709;43.614;1.576;2024-03-08T11:08:36;5.78;;;3.58;;
67904;SDS011;54709;43.614;1.576;2024-03-08T11:11:01;6.05;;;2.60;;
67904;SDS011;54709;43.614;1.576;2024-03-08T11:16:06;4.53;;;3.00;;
67904;SDS011;54709;43.614;1.576;2024-03-08T11:18:34;4.95;;;2.20;;
67904;SDS011;54709;43.614;1.576;2024-03-08T11:21:03;5.68;;;2.10;;
67904;SDS011;54709;43.614;1.576;2024-03-08T11:23:32;4.10;;;1.88;;
67904;SDS011;54709;43.614;1.576;2024-03-08T11:25:58;4.05;;;2.15;;
67904;SDS011;54709;43.614;1.576;2024-03-08T11:28:24;4.72;;;2.35;;
67904;SDS011;54709;43.614;1.576;2024-03-08T11:33:24;3.38;;;1.58;;
67904;SDS011;54709;43.614;1.576;2024-03-08T11:35:52;3.15;;;1.17;;
67904;SDS011;54709;43.614;1.576;2024-03-08T11:38:17;3.58;;;1.48;;
67904;SDS011;54709;43.614;1.576;2024-03-08T11:40:45;3.72;;;1.30;;
67904;SDS011;54709;43.614;1.576;2024-03-08T11:43:15;2.10;;;1.42;;
67904;SDS011;54709;43.614;1.576;2024-03-08T11:45:41;3.80;;;1.10;;
67904;SDS011;54709;43.614;1.576;2024-03-08T11:48:06;3.40;;;1.02;;
67904;SDS011;54709;43.614;1.576;2024-03-08T11:50:32;2.67;;;1.10;;
67904;SDS011;54709;43.614;1.576;2024-03-08T11:53:04;1.75;;;1.25;;
67904;SDS011;54709;43.614;1.576;2024-03-08T11:58:02;2.55;;;1.15;;
67904;SDS011;54709;43.614;1.576;2024-03-08T12:00:29;3.22;;;1.00;;
67904;SDS011;54709;43.614;1.576;2024-03-08T12:05:28;3.40;;;0.93;;
67904;SDS011;54709;43.614;1.576;2024-03-08T12:07:56;3.60;;;1.08;;
67904;SDS011;54709;43.614;1.576;2024-03-08T12:10:23;1.38;;;0.93;;
67904;SDS011;54709;43.614;1.576;2024-03-08T12:12:53;2.58;;;1.00;;
67904;SDS011;54709;43.614;1.576;2024-03-08T12:15:20;1.50;;;0.85;;
67904;SDS011;54709;43.614;1.576;2024-03-08T12:17:48;1.40;;;0.85;;
67904;SDS011;54709;43.614;1.576;2024-03-08T12:20:25;2.00;;;0.95;;
67904;SDS011;54709;43.614;1.576;2024-03-08T12:22:51;1.23;;;0.73;;
67904;SDS011;54709;43.614;1.576;2024-03-08T12:25:18;1.90;;;1.10;;
67904;SDS011;54709;43.614;1.576;2024-03-08T12:27:44;2.83;;;0.90;;
67904;SDS011;54709;43.614;1.576;2024-03-08T12:30:20;5.50;;;1.23;;
67904;SDS011;54709;43.614;1.576;2024-03-08T12:32:54;8.93;;;0.77;;
67904;SDS011;54709;43.614;1.576;2024-03-08T12:35:22;1.40;;;0.70;;
67904;SDS011;54709;43.614;1.576;2024-03-08T12:37:58;0.98;;;0.77;;
67904;SDS011;54709;43.614;1.576;2024-03-08T12:40:28;1.05;;;0.60;;
67904;SDS011;54709;43.614;1.576;2024-03-08T12:42:58;2.50;;;0.80;;
67904;SDS011;54709;43.614;1.576;2024-03-08T12:45:24;1.75;;;0.60;;
67904;SDS011;54709;43.614;1.576;2024-03-08T12:47:53;1.42;;;0.60;;
67904;SDS011;54709;43.614;1.576;2024-03-08T12:50:19;2.63;;;1.17;;
67904;SDS011;54709;43.614;1.576;2024-03-08T12:52:45;0.77;;;0.60;;
67904;SDS011;54709;43.614;1.576;2024-03-08T12:55:11;1.23;;;0.43;;
67904;SDS011;54709;43.614;1.576;2024-03-08T12:57:37;0.60;;;0.50;;
67904;SDS011;54709;43.614;1.576;2024-03-08T13:00:03;1.42;;;0.70;;
67904;SDS011;54709;43.614;1.576;2024-03-08T13:02:30;1.15;;;0.80;;
67904;SDS011;54709;43.614;1.576;2024-03-08T13:04:57;0.70;;;0.70;;
67904;SDS011;54709;43.614;1.576;2024-03-08T13:07:23;0.73;;;0.40;;
67904;SDS011;54709;43.614;1.576;2024-03-08T13:09:51;0.80;;;0.70;;
67904;SDS011;54709;43.614;1.576;2024-03-08T13:12:20;2.33;;;0.50;;
67904;SDS011;54709;43.614;1.576;2024-03-08T13:14:48;0.45;;;0.30;;
67904;SDS011;54709;43.614;1.576;2024-03-08T13:17:14;0.55;;;0.55;;
67904;SDS011;54709;43.614;1.576;2024-03-08T13:19:40;1.13;;;0.52;;
67904;SDS011;54709;43.614;1.576;2024-03-08T13:22:07;1.27;;;0.60;;
67904;SDS011;54709;43.614;1.576;2024-03-08T13:24:37;0.75;;;0.70;;
67904;SDS011;54709;43.614;1.576;2024-03-08T13:27:02;1.40;;;0.50;;
67904;SDS011;54709;43.614;1.576;2024-03-08T13:29:41;0.55;;;0.40;;
67904;SDS011;54709;43.614;1.576;2024-03-08T13:32:08;0.75;;;0.50;;
67904;SDS011;54709;43.614;1.576;2024-03-08T13:34:36;1.15;;;0.50;;
67904;SDS011;54709;43.614;1.576;2024-03-08T13:37:02;0.82;;;0.45;;
67904;SDS011;54709;43.614;1.576;2024-03-08T13:39:30;0.65;;;0.50;;
67904;SDS011;54709;43.614;1.576;2024-03-08T13:42:05;0.93;;;0.40;;
67904;SDS011;54709;43.614;1.576;2024-03-08T13:44:34;0.70;;;0.30;;
67904;SDS011;54709;43.614;1.576;2024-03-08T13:47:01;1.98;;;0.77;;
67904;SDS011;54709;43.614;1.576;2024-03-08T13:49:29;3.13;;;1.05;;
67904;SDS011;54709;43.614;1.576;2024-03-08T13:51:54;1.65;;;0.50;;
67904;SDS011;54709;43.614;1.576;2024-03-08T13:54:20;1.05;;;0.47;;
67904;SDS011;54709;43.614;1.576;2024-03-08T13:56:46;1.08;;;0.60;;
67904;SDS011;54709;43.614;1.576;2024-03-08T13:59:12;1.70;;;0.60;;
67904;SDS011;54709;43.614;1.576;2024-03-08T14:01:38;2.60;;;0.93;;
67904;SDS011;54709;43.614;1.576;2024-03-08T14:04:03;2.13;;;0.73;;
67904;SDS011;54709;43.614;1.576;2024-03-08T14:06:29;1.30;;;0.90;;
67904;SDS011;54709;43.614;1.576;2024-03-08T14:08:55;1.30;;;1.20;;
67904;SDS011;54709;43.614;1.576;2024-03-08T14:11:22;1.67;;;0.85;;
67904;SDS011;54709;43.614;1.576;2024-03-08T14:13:49;2.35;;;0.70;;
67904;SDS011;54709;43.614;1.576;2024-03-08T14:16:15;1.48;;;0.68;;
67904;SDS011;54709;43.614;1.576;2024-03-08T14:18:40;1.15;;;0.63;;
67904;SDS011;54709;43.614;1.576;2024-03-08T14:21:06;0.95;;;0.60;;
67904;SDS011;54709;43.614;1.576;2024-03-08T14:23:35;0.70;;;0.40;;
67904;SDS011;54709;43.614;1.576;2024-03-08T14:26:02;1.23;;;0.60;;
67904;SDS011;54709;43.614;1.576;2024-03-08T14:28:32;2.33;;;0.65;;
67904;SDS011;54709;43.614;1.576;2024-03-08T14:30:57;1.50;;;0.57;;
67904;SDS011;54709;43.614;1.576;2024-03-08T14:33:23;1.70;;;0.70;;
67904;SDS011;54709;43.614;1.576;2024-03-08T14:35:50;1.80;;;0.50;;
67904;SDS011;54709;43.614;1.576;2024-03-08T14:38:16;1.00;;;0.50;;
67904;SDS011;54709;43.614;1.576;2024-03-08T14:40:42;1.58;;;0.80;;
67904;SDS011;54709;43.614;1.576;2024-03-08T14:43:12;1.15;;;0.70;;
67904;SDS011;54709;43.614;1.576;2024-03-08T14:45:38;1.20;;;0.50;;
67904;SDS011;54709;43.614;1.576;2024-03-08T14:48:03;1.08;;;0.60;;
67904;SDS011;54709;43.614;1.576;2024-03-08T14:50:29;0.88;;;0.60;;
67904;SDS011;54709;43.614;1.576;2024-03-08T14:52:59;2.50;;;0.57;;
67904;SDS011;54709;43.614;1.576;2024-03-08T14:55:25;1.38;;;0.50;;
67904;SDS011;54709;43.614;1.576;2024-03-08T14:57:51;2.17;;;0.65;;